ハルビン の空港の天気 - METARとTAF

ハルビン太平国際空港 ( ZYHB / HRB ) - 中国 黒竜江省ハルビン市
飛行場実況気象(Metar)
観測時間12/10 13:00 CST (12/10 05:00 UTC)
風向・風速西 5m/s
視程10km以上
天気現象
なし
気温-10℃
湿度40%
気圧1036hPa
METARZYHB 100500Z 26005MPS CAVOK M10/M21 Q1036 NOSIG
過去の天気等 Google飛行場航空写真 Wunderground天気予報

過去48時間のMETAR

飛行場予報(TAF)
発表時間: 12/10 11:29 CST (12/10 03:29 UTC)
予報対象時間: 10日14時 CST ~ 11日14時 CST
風向・風速西南西 3m/s
視程6000m
少しの雲 雲底高度 910m
TAF ZYHB 100329Z 1006/1106 25003MPS 6000 FEW030 TXM10/06Z TNM21/22Z